sensor_id;sensor_type;location;lat;lon;timestamp;P1;durP1;ratioP1;P2;durP2;ratioP2
66380;SDS011;53177;52.648;1.214;2024-02-28T00:01:59;13.50;;;5.40;;
66380;SDS011;53177;52.648;1.214;2024-02-28T00:04:25;13.73;;;5.67;;
66380;SDS011;53177;52.648;1.214;2024-02-28T00:06:50;13.63;;;6.20;;
66380;SDS011;53177;52.648;1.214;2024-02-28T00:09:15;13.53;;;5.93;;
66380;SDS011;53177;52.648;1.214;2024-02-28T00:11:44;13.85;;;5.70;;
66380;SDS011;53177;52.648;1.214;2024-02-28T00:14:11;13.60;;;6.27;;
66380;SDS011;53177;52.648;1.214;2024-02-28T00:16:40;12.77;;;6.00;;
66380;SDS011;53177;52.648;1.214;2024-02-28T00:19:06;13.13;;;5.93;;
66380;SDS011;53177;52.648;1.214;2024-02-28T00:21:32;14.60;;;6.70;;
66380;SDS011;53177;52.648;1.214;2024-02-28T00:23:57;15.90;;;6.63;;
66380;SDS011;53177;52.648;1.214;2024-02-28T00:26:23;13.93;;;6.40;;
66380;SDS011;53177;52.648;1.214;2024-02-28T00:28:48;15.13;;;6.47;;
66380;SDS011;53177;52.648;1.214;2024-02-28T00:31:13;15.77;;;6.53;;
66380;SDS011;53177;52.648;1.214;2024-02-28T00:33:39;16.53;;;6.47;;
66380;SDS011;53177;52.648;1.214;2024-02-28T00:36:04;15.85;;;6.70;;
66380;SDS011;53177;52.648;1.214;2024-02-28T00:38:30;15.70;;;6.65;;
66380;SDS011;53177;52.648;1.214;2024-02-28T00:40:55;15.73;;;6.87;;
66380;SDS011;53177;52.648;1.214;2024-02-28T00:43:21;16.40;;;7.20;;
66380;SDS011;53177;52.648;1.214;2024-02-28T00:45:46;15.63;;;7.57;;
66380;SDS011;53177;52.648;1.214;2024-02-28T00:48:11;18.95;;;8.20;;
66380;SDS011;53177;52.648;1.214;2024-02-28T00:50:37;19.45;;;7.75;;
66380;SDS011;53177;52.648;1.214;2024-02-28T00:53:02;20.43;;;8.33;;
66380;SDS011;53177;52.648;1.214;2024-02-28T00:55:28;17.77;;;8.37;;
66380;SDS011;53177;52.648;1.214;2024-02-28T00:57:53;21.40;;;8.10;;
66380;SDS011;53177;52.648;1.214;2024-02-28T01:00:19;19.60;;;8.40;;
66380;SDS011;53177;52.648;1.214;2024-02-28T01:02:44;19.87;;;8.87;;
66380;SDS011;53177;52.648;1.214;2024-02-28T01:05:10;22.43;;;8.80;;
66380;SDS011;53177;52.648;1.214;2024-02-28T01:07:35;19.80;;;8.40;;
66380;SDS011;53177;52.648;1.214;2024-02-28T01:10:01;21.90;;;9.73;;
66380;SDS011;53177;52.648;1.214;2024-02-28T01:12:26;20.13;;;9.27;;
66380;SDS011;53177;52.648;1.214;2024-02-28T01:14:52;20.87;;;9.70;;
66380;SDS011;53177;52.648;1.214;2024-02-28T01:17:17;22.05;;;9.65;;
66380;SDS011;53177;52.648;1.214;2024-02-28T01:19:43;22.30;;;9.57;;
66380;SDS011;53177;52.648;1.214;2024-02-28T01:22:08;23.60;;;9.60;;
66380;SDS011;53177;52.648;1.214;2024-02-28T01:24:34;23.53;;;10.03;;
66380;SDS011;53177;52.648;1.214;2024-02-28T01:26:59;23.23;;;9.90;;
66380;SDS011;53177;52.648;1.214;2024-02-28T01:29:25;22.63;;;9.53;;
66380;SDS011;53177;52.648;1.214;2024-02-28T01:31:50;23.77;;;10.63;;
66380;SDS011;53177;52.648;1.214;2024-02-28T01:34:16;21.25;;;9.15;;
66380;SDS011;53177;52.648;1.214;2024-02-28T01:36:42;22.87;;;9.97;;
66380;SDS011;53177;52.648;1.214;2024-02-28T01:39:07;22.73;;;9.23;;
66380;SDS011;53177;52.648;1.214;2024-02-28T01:41:33;24.77;;;10.48;;
66380;SDS011;53177;52.648;1.214;2024-02-28T01:43:58;19.97;;;9.23;;
66380;SDS011;53177;52.648;1.214;2024-02-28T01:46:27;23.33;;;10.05;;
66380;SDS011;53177;52.648;1.214;2024-02-28T01:48:54;22.52;;;9.30;;
66380;SDS011;53177;52.648;1.214;2024-02-28T01:51:21;23.30;;;10.63;;
66380;SDS011;53177;52.648;1.214;2024-02-28T01:53:47;22.90;;;9.47;;
66380;SDS011;53177;52.648;1.214;2024-02-28T01:56:15;23.15;;;9.57;;
66380;SDS011;53177;52.648;1.214;2024-02-28T01:58:42;20.52;;;9.18;;
66380;SDS011;53177;52.648;1.214;2024-02-28T02:01:10;23.17;;;9.93;;
66380;SDS011;53177;52.648;1.214;2024-02-28T02:03:37;19.42;;;8.75;;
66380;SDS011;53177;52.648;1.214;2024-02-28T02:06:02;20.93;;;9.47;;
66380;SDS011;53177;52.648;1.214;2024-02-28T02:08:28;21.92;;;9.57;;
66380;SDS011;53177;52.648;1.214;2024-02-28T02:10:54;22.90;;;10.20;;
66380;SDS011;53177;52.648;1.214;2024-02-28T02:13:20;24.45;;;10.35;;
66380;SDS011;53177;52.648;1.214;2024-02-28T02:15:45;26.80;;;10.40;;
66380;SDS011;53177;52.648;1.214;2024-02-28T02:18:11;25.73;;;10.57;;
66380;SDS011;53177;52.648;1.214;2024-02-28T02:20:37;27.13;;;10.73;;
66380;SDS011;53177;52.648;1.214;2024-02-28T02:23:07;25.52;;;9.70;;
66380;SDS011;53177;52.648;1.214;2024-02-28T02:25:33;23.70;;;10.40;;
66380;SDS011;53177;52.648;1.214;2024-02-28T02:27:58;29.57;;;11.00;;
66380;SDS011;53177;52.648;1.214;2024-02-28T02:30:24;25.77;;;10.57;;
66380;SDS011;53177;52.648;1.214;2024-02-28T02:32:49;23.08;;;9.85;;
66380;SDS011;53177;52.648;1.214;2024-02-28T02:35:15;24.03;;;10.03;;
66380;SDS011;53177;52.648;1.214;2024-02-28T02:37:44;27.40;;;11.17;;
66380;SDS011;53177;52.648;1.214;2024-02-28T02:40:13;25.80;;;10.70;;
66380;SDS011;53177;52.648;1.214;2024-02-28T02:42:39;25.00;;;10.80;;
66380;SDS011;53177;52.648;1.214;2024-02-28T02:45:04;28.37;;;11.53;;
66380;SDS011;53177;52.648;1.214;2024-02-28T02:47:30;21.93;;;10.00;;
66380;SDS011;53177;52.648;1.214;2024-02-28T02:49:56;24.20;;;10.95;;
66380;SDS011;53177;52.648;1.214;2024-02-28T02:52:21;29.33;;;12.23;;
66380;SDS011;53177;52.648;1.214;2024-02-28T02:54:46;25.43;;;10.30;;
66380;SDS011;53177;52.648;1.214;2024-02-28T02:57:12;25.27;;;10.90;;
66380;SDS011;53177;52.648;1.214;2024-02-28T02:59:37;26.40;;;10.03;;
66380;SDS011;53177;52.648;1.214;2024-02-28T03:02:02;26.17;;;10.63;;
66380;SDS011;53177;52.648;1.214;2024-02-28T03:04:28;31.30;;;11.20;;
66380;SDS011;53177;52.648;1.214;2024-02-28T03:06:53;29.37;;;11.27;;
66380;SDS011;53177;52.648;1.214;2024-02-28T03:09:19;26.37;;;11.10;;
66380;SDS011;53177;52.648;1.214;2024-02-28T03:11:44;29.93;;;11.07;;
66380;SDS011;53177;52.648;1.214;2024-02-28T03:14:10;26.05;;;10.93;;
66380;SDS011;53177;52.648;1.214;2024-02-28T03:16:35;31.48;;;12.23;;
66380;SDS011;53177;52.648;1.214;2024-02-28T03:19:05;29.80;;;11.70;;
66380;SDS011;53177;52.648;1.214;2024-02-28T03:21:31;29.67;;;12.00;;
66380;SDS011;53177;52.648;1.214;2024-02-28T03:23:56;31.33;;;11.90;;
66380;SDS011;53177;52.648;1.214;2024-02-28T03:26:21;35.03;;;12.83;;
66380;SDS011;53177;52.648;1.214;2024-02-28T03:28:47;31.70;;;12.07;;
66380;SDS011;53177;52.648;1.214;2024-02-28T03:31:12;36.53;;;12.93;;
66380;SDS011;53177;52.648;1.214;2024-02-28T03:33:38;29.75;;;11.32;;
66380;SDS011;53177;52.648;1.214;2024-02-28T03:36:03;30.07;;;12.87;;
66380;SDS011;53177;52.648;1.214;2024-02-28T03:38:29;32.50;;;12.30;;
66380;SDS011;53177;52.648;1.214;2024-02-28T03:40:54;32.13;;;12.03;;
66380;SDS011;53177;52.648;1.214;2024-02-28T03:43:19;40.50;;;12.80;;
66380;SDS011;53177;52.648;1.214;2024-02-28T03:45:45;25.98;;;10.73;;
66380;SDS011;53177;52.648;1.214;2024-02-28T03:48:10;39.03;;;11.67;;
66380;SDS011;53177;52.648;1.214;2024-02-28T03:50:36;32.03;;;11.03;;
66380;SDS011;53177;52.648;1.214;2024-02-28T03:53:02;33.60;;;11.43;;
66380;SDS011;53177;52.648;1.214;2024-02-28T03:55:28;40.90;;;11.77;;
66380;SDS011;53177;52.648;1.214;2024-02-28T03:57:53;33.17;;;11.70;;
66380;SDS011;53177;52.648;1.214;2024-02-28T04:00:19;33.03;;;11.27;;
66380;SDS011;53177;52.648;1.214;2024-02-28T04:02:44;28.90;;;11.27;;
66380;SDS011;53177;52.648;1.214;2024-02-28T04:05:10;27.77;;;11.50;;
66380;SDS011;53177;52.648;1.214;2024-02-28T04:07:35;28.07;;;11.07;;
66380;SDS011;53177;52.648;1.214;2024-02-28T04:10:00;28.55;;;10.60;;
66380;SDS011;53177;52.648;1.214;2024-02-28T04:12:26;29.85;;;11.10;;
66380;SDS011;53177;52.648;1.214;2024-02-28T04:14:51;30.90;;;10.50;;
66380;SDS011;53177;52.648;1.214;2024-02-28T04:17:17;39.37;;;11.60;;
66380;SDS011;53177;52.648;1.214;2024-02-28T04:19:42;29.53;;;10.90;;
66380;SDS011;53177;52.648;1.214;2024-02-28T04:22:07;30.53;;;11.33;;
66380;SDS011;53177;52.648;1.214;2024-02-28T04:24:33;39.33;;;11.77;;
66380;SDS011;53177;52.648;1.214;2024-02-28T04:26:58;34.63;;;11.82;;
66380;SDS011;53177;52.648;1.214;2024-02-28T04:29:24;25.55;;;11.05;;
66380;SDS011;53177;52.648;1.214;2024-02-28T04:31:50;28.42;;;11.05;;
66380;SDS011;53177;52.648;1.214;2024-02-28T04:34:15;57.07;;;12.50;;
66380;SDS011;53177;52.648;1.214;2024-02-28T04:36:41;42.40;;;12.83;;
66380;SDS011;53177;52.648;1.214;2024-02-28T04:39:06;31.93;;;11.20;;
66380;SDS011;53177;52.648;1.214;2024-02-28T04:41:32;68.40;;;12.35;;
66380;SDS011;53177;52.648;1.214;2024-02-28T04:43:58;29.42;;;10.98;;
66380;SDS011;53177;52.648;1.214;2024-02-28T04:46:25;42.42;;;12.15;;
66380;SDS011;53177;52.648;1.214;2024-02-28T04:48:51;43.50;;;11.60;;
66380;SDS011;53177;52.648;1.214;2024-02-28T04:51:16;30.77;;;11.30;;
66380;SDS011;53177;52.648;1.214;2024-02-28T04:53:42;26.55;;;11.15;;
66380;SDS011;53177;52.648;1.214;2024-02-28T04:56:08;30.85;;;10.68;;
66380;SDS011;53177;52.648;1.214;2024-02-28T04:58:35;52.53;;;11.40;;
66380;SDS011;53177;52.648;1.214;2024-02-28T05:01:01;27.02;;;10.68;;
66380;SDS011;53177;52.648;1.214;2024-02-28T05:03:26;25.67;;;11.07;;
66380;SDS011;53177;52.648;1.214;2024-02-28T05:05:52;26.42;;;9.90;;
66380;SDS011;53177;52.648;1.214;2024-02-28T05:08:19;27.10;;;10.63;;
66380;SDS011;53177;52.648;1.214;2024-02-28T05:10:45;25.85;;;10.70;;
66380;SDS011;53177;52.648;1.214;2024-02-28T05:13:10;24.87;;;10.43;;
66380;SDS011;53177;52.648;1.214;2024-02-28T05:15:35;24.30;;;9.80;;
66380;SDS011;53177;52.648;1.214;2024-02-28T05:18:01;45.67;;;10.73;;
66380;SDS011;53177;52.648;1.214;2024-02-28T05:20:27;28.85;;;10.32;;
66380;SDS011;53177;52.648;1.214;2024-02-28T05:22:52;33.33;;;10.20;;
66380;SDS011;53177;52.648;1.214;2024-02-28T05:25:18;35.40;;;10.53;;
66380;SDS011;53177;52.648;1.214;2024-02-28T05:27:43;100.40;;;13.48;;
66380;SDS011;53177;52.648;1.214;2024-02-28T05:30:09;52.75;;;11.20;;
66380;SDS011;53177;52.648;1.214;2024-02-28T05:32:35;107.73;;;12.67;;
66380;SDS011;53177;52.648;1.214;2024-02-28T05:35:00;127.05;;;13.38;;
66380;SDS011;53177;52.648;1.214;2024-02-28T05:37:26;47.60;;;11.43;;
66380;SDS011;53177;52.648;1.214;2024-02-28T05:39:51;98.93;;;13.90;;
66380;SDS011;53177;52.648;1.214;2024-02-28T05:42:17;123.63;;;14.23;;
66380;SDS011;53177;52.648;1.214;2024-02-28T05:44:49;61.90;;;12.20;;
66380;SDS011;53177;52.648;1.214;2024-02-28T05:47:15;69.32;;;13.18;;
66380;SDS011;53177;52.648;1.214;2024-02-28T05:49:41;91.20;;;14.30;;
66380;SDS011;53177;52.648;1.214;2024-02-28T05:52:06;134.20;;;15.02;;
66380;SDS011;53177;52.648;1.214;2024-02-28T05:54:32;40.80;;;11.60;;
66380;SDS011;53177;52.648;1.214;2024-02-28T05:56:59;63.60;;;13.33;;
66380;SDS011;53177;52.648;1.214;2024-02-28T05:59:25;73.22;;;12.65;;
66380;SDS011;53177;52.648;1.214;2024-02-28T06:01:51;86.88;;;14.27;;
66380;SDS011;53177;52.648;1.214;2024-02-28T06:04:17;62.05;;;13.15;;
66380;SDS011;53177;52.648;1.214;2024-02-28T06:06:42;83.37;;;13.57;;
66380;SDS011;53177;52.648;1.214;2024-02-28T06:09:08;39.13;;;11.27;;
66380;SDS011;53177;52.648;1.214;2024-02-28T06:11:33;61.10;;;13.73;;
66380;SDS011;53177;52.648;1.214;2024-02-28T06:13:59;58.90;;;13.97;;
66380;SDS011;53177;52.648;1.214;2024-02-28T06:16:24;89.38;;;16.08;;
66380;SDS011;53177;52.648;1.214;2024-02-28T06:18:50;67.33;;;13.30;;
66380;SDS011;53177;52.648;1.214;2024-02-28T06:21:15;67.68;;;13.73;;
66380;SDS011;53177;52.648;1.214;2024-02-28T06:23:41;79.00;;;13.18;;
66380;SDS011;53177;52.648;1.214;2024-02-28T06:26:07;54.15;;;13.63;;
66380;SDS011;53177;52.648;1.214;2024-02-28T06:28:39;81.57;;;14.27;;
66380;SDS011;53177;52.648;1.214;2024-02-28T06:31:11;95.68;;;14.65;;
66380;SDS011;53177;52.648;1.214;2024-02-28T06:33:37;100.18;;;16.58;;
66380;SDS011;53177;52.648;1.214;2024-02-28T06:36:03;66.23;;;15.10;;
66380;SDS011;53177;52.648;1.214;2024-02-28T06:38:29;74.70;;;15.32;;
66380;SDS011;53177;52.648;1.214;2024-02-28T06:40:54;69.93;;;14.80;;
66380;SDS011;53177;52.648;1.214;2024-02-28T06:43:19;60.83;;;13.30;;
66380;SDS011;53177;52.648;1.214;2024-02-28T06:45:45;52.58;;;12.38;;
66380;SDS011;53177;52.648;1.214;2024-02-28T06:48:10;79.07;;;16.17;;
66380;SDS011;53177;52.648;1.214;2024-02-28T06:50:36;44.73;;;12.33;;
66380;SDS011;53177;52.648;1.214;2024-02-28T06:53:02;74.22;;;14.50;;
66380;SDS011;53177;52.648;1.214;2024-02-28T06:55:28;73.10;;;14.02;;
66380;SDS011;53177;52.648;1.214;2024-02-28T06:57:54;48.17;;;14.77;;
66380;SDS011;53177;52.648;1.214;2024-02-28T07:00:19;62.40;;;15.83;;
66380;SDS011;53177;52.648;1.214;2024-02-28T07:02:45;55.23;;;17.57;;
66380;SDS011;53177;52.648;1.214;2024-02-28T07:05:10;42.67;;;14.03;;
66380;SDS011;53177;52.648;1.214;2024-02-28T07:07:36;41.70;;;14.02;;
66380;SDS011;53177;52.648;1.214;2024-02-28T07:10:02;46.60;;;13.93;;
66380;SDS011;53177;52.648;1.214;2024-02-28T07:12:29;50.95;;;13.30;;
66380;SDS011;53177;52.648;1.214;2024-02-28T07:14:55;63.63;;;14.33;;
66380;SDS011;53177;52.648;1.214;2024-02-28T07:17:20;66.43;;;13.68;;
66380;SDS011;53177;52.648;1.214;2024-02-28T07:19:46;62.42;;;14.32;;
66380;SDS011;53177;52.648;1.214;2024-02-28T07:22:11;66.63;;;14.13;;
66380;SDS011;53177;52.648;1.214;2024-02-28T07:24:36;55.30;;;14.00;;
66380;SDS011;53177;52.648;1.214;2024-02-28T07:27:02;59.63;;;13.97;;
66380;SDS011;53177;52.648;1.214;2024-02-28T07:29:29;59.92;;;14.70;;
66380;SDS011;53177;52.648;1.214;2024-02-28T07:31:54;66.60;;;14.60;;
66380;SDS011;53177;52.648;1.214;2024-02-28T07:34:19;49.95;;;13.98;;
66380;SDS011;53177;52.648;1.214;2024-02-28T07:36:45;56.43;;;13.67;;
66380;SDS011;53177;52.648;1.214;2024-02-28T07:39:10;50.43;;;14.10;;
66380;SDS011;53177;52.648;1.214;2024-02-28T07:41:38;52.70;;;14.73;;
66380;SDS011;53177;52.648;1.214;2024-02-28T07:44:07;68.50;;;14.07;;
66380;SDS011;53177;52.648;1.214;2024-02-28T07:46:33;50.15;;;13.30;;
66380;SDS011;53177;52.648;1.214;2024-02-28T07:48:59;53.83;;;13.88;;
66380;SDS011;53177;52.648;1.214;2024-02-28T07:51:25;51.17;;;14.32;;
66380;SDS011;53177;52.648;1.214;2024-02-28T07:53:51;63.30;;;14.30;;
66380;SDS011;53177;52.648;1.214;2024-02-28T07:56:17;53.72;;;13.93;;
66380;SDS011;53177;52.648;1.214;2024-02-28T07:58:46;48.50;;;13.97;;
66380;SDS011;53177;52.648;1.214;2024-02-28T08:01:12;47.15;;;14.05;;
66380;SDS011;53177;52.648;1.214;2024-02-28T08:03:37;82.03;;;17.73;;
66380;SDS011;53177;52.648;1.214;2024-02-28T08:06:03;60.00;;;14.80;;
66380;SDS011;53177;52.648;1.214;2024-02-28T08:08:29;61.87;;;15.93;;
66380;SDS011;53177;52.648;1.214;2024-02-28T08:10:54;84.97;;;16.65;;
66380;SDS011;53177;52.648;1.214;2024-02-28T08:13:20;58.97;;;14.90;;
66380;SDS011;53177;52.648;1.214;2024-02-28T08:15:46;59.27;;;14.93;;
66380;SDS011;53177;52.648;1.214;2024-02-28T08:18:11;65.15;;;16.50;;
66380;SDS011;53177;52.648;1.214;2024-02-28T08:20:37;62.30;;;16.63;;
66380;SDS011;53177;52.648;1.214;2024-02-28T08:23:03;68.13;;;16.92;;
66380;SDS011;53177;52.648;1.214;2024-02-28T08:25:29;64.60;;;16.33;;
66380;SDS011;53177;52.648;1.214;2024-02-28T08:27:54;67.27;;;16.80;;
66380;SDS011;53177;52.648;1.214;2024-02-28T08:30:20;58.20;;;16.33;;
66380;SDS011;53177;52.648;1.214;2024-02-28T08:32:45;61.57;;;16.23;;
66380;SDS011;53177;52.648;1.214;2024-02-28T08:35:11;55.27;;;14.67;;
66380;SDS011;53177;52.648;1.214;2024-02-28T08:37:40;59.90;;;14.98;;
66380;SDS011;53177;52.648;1.214;2024-02-28T08:40:06;68.00;;;17.63;;
66380;SDS011;53177;52.648;1.214;2024-02-28T08:42:32;62.50;;;16.08;;
66380;SDS011;53177;52.648;1.214;2024-02-28T08:44:57;52.50;;;15.13;;
66380;SDS011;53177;52.648;1.214;2024-02-28T08:47:24;57.47;;;16.38;;
66380;SDS011;53177;52.648;1.214;2024-02-28T08:49:51;58.55;;;16.75;;
66380;SDS011;53177;52.648;1.214;2024-02-28T08:52:17;61.25;;;16.67;;
66380;SDS011;53177;52.648;1.214;2024-02-28T08:54:42;62.97;;;16.47;;
66380;SDS011;53177;52.648;1.214;2024-02-28T08:57:07;58.63;;;16.33;;
66380;SDS011;53177;52.648;1.214;2024-02-28T08:59:33;66.03;;;17.80;;
66380;SDS011;53177;52.648;1.214;2024-02-28T09:01:58;53.67;;;16.05;;
66380;SDS011;53177;52.648;1.214;2024-02-28T09:04:24;62.47;;;17.97;;
66380;SDS011;53177;52.648;1.214;2024-02-28T09:06:49;55.93;;;17.60;;
66380;SDS011;53177;52.648;1.214;2024-02-28T09:09:15;62.77;;;18.63;;
66380;SDS011;53177;52.648;1.214;2024-02-28T09:11:40;63.60;;;18.83;;
66380;SDS011;53177;52.648;1.214;2024-02-28T09:14:05;58.50;;;18.92;;
66380;SDS011;53177;52.648;1.214;2024-02-28T09:16:31;62.40;;;18.13;;
66380;SDS011;53177;52.648;1.214;2024-02-28T09:18:56;58.17;;;18.07;;
66380;SDS011;53177;52.648;1.214;2024-02-28T09:21:22;58.60;;;17.33;;
66380;SDS011;53177;52.648;1.214;2024-02-28T09:23:47;56.13;;;16.83;;
66380;SDS011;53177;52.648;1.214;2024-02-28T09:26:12;48.43;;;15.30;;
66380;SDS011;53177;52.648;1.214;2024-02-28T09:28:38;52.35;;;15.40;;
66380;SDS011;53177;52.648;1.214;2024-02-28T09:31:03;52.15;;;15.68;;
66380;SDS011;53177;52.648;1.214;2024-02-28T09:33:29;52.67;;;15.67;;
66380;SDS011;53177;52.648;1.214;2024-02-28T09:35:54;51.38;;;16.17;;
66380;SDS011;53177;52.648;1.214;2024-02-28T09:38:20;51.88;;;16.05;;
66380;SDS011;53177;52.648;1.214;2024-02-28T09:40:46;49.90;;;15.37;;
66380;SDS011;53177;52.648;1.214;2024-02-28T09:43:19;42.90;;;15.55;;
66380;SDS011;53177;52.648;1.214;2024-02-28T09:45:54;48.40;;;15.90;;
66380;SDS011;53177;52.648;1.214;2024-02-28T09:48:28;47.10;;;14.55;;
66380;SDS011;53177;52.648;1.214;2024-02-28T09:50:55;44.28;;;14.15;;
66380;SDS011;53177;52.648;1.214;2024-02-28T09:53:21;46.28;;;13.75;;
66380;SDS011;53177;52.648;1.214;2024-02-28T09:55:47;53.90;;;15.43;;
66380;SDS011;53177;52.648;1.214;2024-02-28T09:58:15;43.47;;;14.95;;
66380;SDS011;53177;52.648;1.214;2024-02-28T10:00:41;47.40;;;15.02;;
66380;SDS011;53177;52.648;1.214;2024-02-28T10:03:10;47.93;;;16.27;;
66380;SDS011;53177;52.648;1.214;2024-02-28T10:05:38;43.80;;;15.90;;
66380;SDS011;53177;52.648;1.214;2024-02-28T10:08:05;46.55;;;16.92;;
66380;SDS011;53177;52.648;1.214;2024-02-28T10:10:30;45.60;;;15.82;;
66380;SDS011;53177;52.648;1.214;2024-02-28T10:12:57;41.70;;;15.80;;
66380;SDS011;53177;52.648;1.214;2024-02-28T10:15:25;49.58;;;15.77;;
66380;SDS011;53177;52.648;1.214;2024-02-28T10:17:51;42.45;;;13.85;;
66380;SDS011;53177;52.648;1.214;2024-02-28T10:20:17;37.93;;;14.57;;
66380;SDS011;53177;52.648;1.214;2024-02-28T10:22:42;37.30;;;13.10;;
66380;SDS011;53177;52.648;1.214;2024-02-28T10:25:08;35.47;;;12.05;;
66380;SDS011;53177;52.648;1.214;2024-02-28T10:27:36;27.60;;;11.57;;
66380;SDS011;53177;52.648;1.214;2024-02-28T10:30:02;32.17;;;12.13;;
66380;SDS011;53177;52.648;1.214;2024-02-28T10:32:31;28.17;;;10.43;;
66380;SDS011;53177;52.648;1.214;2024-02-28T10:35:02;27.33;;;10.10;;
66380;SDS011;53177;52.648;1.214;2024-02-28T10:37:30;28.83;;;9.73;;
66380;SDS011;53177;52.648;1.214;2024-02-28T10:39:57;30.90;;;9.60;;
66380;SDS011;53177;52.648;1.214;2024-02-28T10:42:25;27.03;;;9.90;;
66380;SDS011;53177;52.648;1.214;2024-02-28T10:44:52;28.00;;;9.63;;
66380;SDS011;53177;52.648;1.214;2024-02-28T10:47:18;34.13;;;9.63;;
66380;SDS011;53177;52.648;1.214;2024-02-28T10:49:45;26.60;;;9.00;;
66380;SDS011;53177;52.648;1.214;2024-02-28T10:52:13;22.03;;;8.70;;
66380;SDS011;53177;52.648;1.214;2024-02-28T10:54:40;28.15;;;9.68;;
66380;SDS011;53177;52.648;1.214;2024-02-28T10:57:11;23.17;;;9.50;;
66380;SDS011;53177;52.648;1.214;2024-02-28T10:59:38;28.70;;;8.48;;
66380;SDS011;53177;52.648;1.214;2024-02-28T11:02:06;25.97;;;8.77;;
66380;SDS011;53177;52.648;1.214;2024-02-28T11:04:31;23.35;;;8.13;;
66380;SDS011;53177;52.648;1.214;2024-02-28T11:06:57;25.63;;;9.57;;
66380;SDS011;53177;52.648;1.214;2024-02-28T11:09:23;21.03;;;7.50;;
66380;SDS011;53177;52.648;1.214;2024-02-28T11:11:51;25.25;;;7.55;;
66380;SDS011;53177;52.648;1.214;2024-02-28T11:14:17;19.83;;;6.10;;
66380;SDS011;53177;52.648;1.214;2024-02-28T11:16:43;21.63;;;6.38;;
66380;SDS011;53177;52.648;1.214;2024-02-28T11:19:18;20.73;;;5.82;;
66380;SDS011;53177;52.648;1.214;2024-02-28T11:21:53;21.45;;;6.40;;
66380;SDS011;53177;52.648;1.214;2024-02-28T11:24:22;17.40;;;5.15;;
66380;SDS011;53177;52.648;1.214;2024-02-28T11:26:50;22.10;;;4.63;;
66380;SDS011;53177;52.648;1.214;2024-02-28T11:29:16;18.40;;;5.30;;
66380;SDS011;53177;52.648;1.214;2024-02-28T11:31:48;19.98;;;5.13;;
66380;SDS011;53177;52.648;1.214;2024-02-28T11:34:13;12.37;;;4.43;;
66380;SDS011;53177;52.648;1.214;2024-02-28T11:36:39;17.63;;;4.80;;
66380;SDS011;53177;52.648;1.214;2024-02-28T11:39:06;17.58;;;4.50;;
66380;SDS011;53177;52.648;1.214;2024-02-28T11:41:31;18.77;;;5.20;;
66380;SDS011;53177;52.648;1.214;2024-02-28T11:43:57;14.93;;;4.73;;
66380;SDS011;53177;52.648;1.214;2024-02-28T11:46:23;13.50;;;4.63;;
66380;SDS011;53177;52.648;1.214;2024-02-28T11:48:49;16.23;;;4.32;;
66380;SDS011;53177;52.648;1.214;2024-02-28T11:51:14;15.03;;;4.50;;
66380;SDS011;53177;52.648;1.214;2024-02-28T11:53:40;15.95;;;5.25;;
66380;SDS011;53177;52.648;1.214;2024-02-28T11:56:06;16.13;;;5.20;;
66380;SDS011;53177;52.648;1.214;2024-02-28T11:58:33;18.40;;;5.40;;
66380;SDS011;53177;52.648;1.214;2024-02-28T12:00:58;15.00;;;4.50;;
66380;SDS011;53177;52.648;1.214;2024-02-28T12:03:24;16.80;;;4.90;;
66380;SDS011;53177;52.648;1.214;2024-02-28T12:05:54;15.87;;;5.30;;
66380;SDS011;53177;52.648;1.214;2024-02-28T12:08:20;17.05;;;5.10;;
66380;SDS011;53177;52.648;1.214;2024-02-28T12:10:48;17.20;;;4.78;;
66380;SDS011;53177;52.648;1.214;2024-02-28T12:13:17;16.38;;;4.68;;
66380;SDS011;53177;52.648;1.214;2024-02-28T12:15:43;12.95;;;5.10;;
66380;SDS011;53177;52.648;1.214;2024-02-28T12:18:09;12.00;;;4.68;;
66380;SDS011;53177;52.648;1.214;2024-02-28T12:20:36;14.27;;;5.30;;
66380;SDS011;53177;52.648;1.214;2024-02-28T12:23:04;10.47;;;4.70;;
66380;SDS011;53177;52.648;1.214;2024-02-28T12:25:30;12.38;;;4.78;;
66380;SDS011;53177;52.648;1.214;2024-02-28T12:27:56;14.25;;;5.43;;
66380;SDS011;53177;52.648;1.214;2024-02-28T12:30:21;13.97;;;5.17;;
66380;SDS011;53177;52.648;1.214;2024-02-28T12:32:47;12.03;;;5.03;;
66380;SDS011;53177;52.648;1.214;2024-02-28T12:35:12;9.77;;;4.35;;
66380;SDS011;53177;52.648;1.214;2024-02-28T12:37:38;14.10;;;4.63;;
66380;SDS011;53177;52.648;1.214;2024-02-28T12:40:04;11.27;;;4.97;;
66380;SDS011;53177;52.648;1.214;2024-02-28T12:42:31;12.90;;;4.67;;
66380;SDS011;53177;52.648;1.214;2024-02-28T12:44:57;12.55;;;4.30;;
66380;SDS011;53177;52.648;1.214;2024-02-28T12:47:22;13.57;;;4.78;;
66380;SDS011;53177;52.648;1.214;2024-02-28T12:49:47;14.40;;;5.30;;
66380;SDS011;53177;52.648;1.214;2024-02-28T12:52:13;11.17;;;5.07;;
66380;SDS011;53177;52.648;1.214;2024-02-28T12:54:38;11.67;;;4.87;;
66380;SDS011;53177;52.648;1.214;2024-02-28T12:57:04;13.20;;;4.78;;
66380;SDS011;53177;52.648;1.214;2024-02-28T12:59:31;13.83;;;5.37;;
66380;SDS011;53177;52.648;1.214;2024-02-28T13:01:57;12.45;;;5.30;;
66380;SDS011;53177;52.648;1.214;2024-02-28T13:04:23;13.90;;;5.20;;
66380;SDS011;53177;52.648;1.214;2024-02-28T13:06:50;11.97;;;5.53;;
66380;SDS011;53177;52.648;1.214;2024-02-28T13:09:16;13.63;;;5.45;;
66380;SDS011;53177;52.648;1.214;2024-02-28T13:11:42;13.98;;;5.70;;
66380;SDS011;53177;52.648;1.214;2024-02-28T13:14:08;13.80;;;5.83;;
66380;SDS011;53177;52.648;1.214;2024-02-28T13:16:34;12.77;;;5.43;;
66380;SDS011;53177;52.648;1.214;2024-02-28T13:18:59;15.17;;;5.87;;
66380;SDS011;53177;52.648;1.214;2024-02-28T13:21:25;11.20;;;5.37;;
66380;SDS011;53177;52.648;1.214;2024-02-28T13:23:50;14.23;;;6.38;;
66380;SDS011;53177;52.648;1.214;2024-02-28T13:26:15;15.93;;;6.90;;
66380;SDS011;53177;52.648;1.214;2024-02-28T13:28:44;12.87;;;6.10;;
66380;SDS011;53177;52.648;1.214;2024-02-28T13:31:09;14.15;;;6.32;;
66380;SDS011;53177;52.648;1.214;2024-02-28T13:33:35;12.60;;;6.15;;
66380;SDS011;53177;52.648;1.214;2024-02-28T13:36:03;14.23;;;6.47;;
66380;SDS011;53177;52.648;1.214;2024-02-28T13:38:28;15.07;;;6.47;;
66380;SDS011;53177;52.648;1.214;2024-02-28T13:40:55;13.55;;;6.18;;
66380;SDS011;53177;52.648;1.214;2024-02-28T13:43:21;14.70;;;6.68;;
66380;SDS011;53177;52.648;1.214;2024-02-28T13:45:47;16.20;;;6.80;;
66380;SDS011;53177;52.648;1.214;2024-02-28T13:48:19;14.77;;;6.55;;
66380;SDS011;53177;52.648;1.214;2024-02-28T13:50:47;14.97;;;6.63;;
66380;SDS011;53177;52.648;1.214;2024-02-28T13:53:14;14.18;;;5.85;;
66380;SDS011;53177;52.648;1.214;2024-02-28T13:55:42;16.05;;;6.85;;
66380;SDS011;53177;52.648;1.214;2024-02-28T13:58:10;13.90;;;5.82;;
66380;SDS011;53177;52.648;1.214;2024-02-28T14:00:39;12.75;;;5.70;;
66380;SDS011;53177;52.648;1.214;2024-02-28T14:03:05;12.77;;;6.20;;
66380;SDS011;53177;52.648;1.214;2024-02-28T14:05:31;14.77;;;6.35;;
66380;SDS011;53177;52.648;1.214;2024-02-28T14:07:57;13.73;;;6.45;;
66380;SDS011;53177;52.648;1.214;2024-02-28T14:10:23;15.18;;;6.45;;
66380;SDS011;53177;52.648;1.214;2024-02-28T14:12:49;16.30;;;6.70;;
66380;SDS011;53177;52.648;1.214;2024-02-28T14:15:17;13.40;;;6.00;;
66380;SDS011;53177;52.648;1.214;2024-02-28T14:17:43;13.95;;;6.32;;
66380;SDS011;53177;52.648;1.214;2024-02-28T14:20:09;12.30;;;6.17;;